LIMLLIMF

Guest
Details From LIML - Milano Linate
To LIMF - Torino Caselle
Flight Number -
Tags Generated
Created
Modified
Stats Distance 70 nm / 129 km
Max Altitude 0 ft / 0 m
Waypoints 2
Social Downloads 2
Likes 0
Share VATSIM

Download

Looking for another format? Having issues loading an existing format? Contact us
Advertisement - Login to hide

Notes

Generated

Route

LIML LIMF

ID Type Via Altitude Latitude Longitude Leg Dist Tot Dist Heading (true) Name
O LIML APT - 0 ft / 0 m 45.45804˚ 9.26826˚ - 0 nm - -
O LIMF APT - 0 ft / 0 m 45.21559˚ 7.65057˚ 69 nm 69 nm 259° / 257° -

Altitude Profile

Advertisement - Login to hide

LIML

Details ICAO LIML (LIN)
Name Milano Linate
Region Italy
Timezone Europe/Rome (UTC+1.0)
Stats Elevation 353 ft / 108 m (AMSL)
Location 45.450302° 9.272801°
Runways 2
Magnetic Variation 2.500° E

METAR

LIML 131050Z 00000KT 3000 BR NSC 05/05 Q1017 NOSIG

Decode

TAF

TAF AMD LIML 130834Z 1309/1406 VRB05KT 0200 BR BKN002 BECMG 1309/1311 1500 BR BKN010 BECMG 1311/1313 6000 SCT015 BECMG 1320/1322 2500 BCFG TEMPO 1400/1406 0600 FZFG

Decode

Departure Runways

ID Width Length Bearing (true) Bearing (mag) Surface Threshold Offset Overrun Length
17 72 ft / 22 m 1,975 ft / 602 m 175.64° 173.14° Asphalt 200 ft / 61 m 0 ft / 0 m
18 197 ft / 60 m 8,017 ft / 2,443 m 175.67° 173.17° Asphalt 0 ft / 0 m 190 ft / 58 m
35 72 ft / 22 m 1,975 ft / 602 m 355.64° 353.14° Asphalt 200 ft / 61 m 0 ft / 0 m
36 197 ft / 60 m 8,017 ft / 2,443 m 355.68° 353.18° Asphalt 0 ft / 0 m 980 ft / 299 m

LIMF

Details ICAO LIMF (TRN)
Name Torino Caselle
Region Italy
Timezone Europe/Rome (UTC+1.0)
Stats Elevation 989 ft / 301 m (AMSL)
Location 45.200763° 7.649630°
Runways 1
Magnetic Variation 2.121° E

METAR

LIMF 131050Z 18002KT CAVOK 04/M04 Q1017

Decode

TAF

TAF LIMF 130500Z 1306/1406 VRB05KT CAVOK TEMPO 1402/1406 3000 BCFG

Decode

Destination Runways

ID Width Length Bearing (true) Bearing (mag) Surface Threshold Offset Overrun Length
18 197 ft / 60 m 10,835 ft / 3,303 m 182.56° 180.44° Asphalt 2,378 ft / 725 m 970 ft / 296 m
36 197 ft / 60 m 10,835 ft / 3,303 m 2.56° 0.44° Asphalt 1,148 ft / 350 m 0 ft / 0 m

Approach Navaids

Runway Type Ident Frequency Range Bearing (true) Bearing (mag) Slope Elevation
36 Localiser ITOC 108.70 MHz 18 nm / 33 km 2.56° 0.44° - 989 ft / 301 m (AMSL)
36 Glidescope ITOC 108.70 MHz 10 nm / 19 km 2.56° 0.44° 3.00° 989 ft / 301 m (AMSL)
36 DME ITOC 108.70 MHz 25 nm / 46 km - - - 989 ft / 301 m (AMSL)

Popular Alternatives